createdAt,value
2018-05-21T00:03:04.614Z,16.30
2018-05-21T00:07:07.181Z,16.30
2018-05-21T00:11:18.140Z,16.30
2018-05-21T00:15:26.623Z,16.30
2018-05-21T00:19:29.172Z,16.20
2018-05-21T00:23:31.710Z,16.20
2018-05-21T00:27:35.000Z,16.10
2018-05-21T00:31:41.500Z,16.10
2018-05-21T00:35:48.482Z,16.10
2018-05-21T00:39:52.820Z,16.00
2018-05-21T00:43:55.634Z,16.00
2018-05-21T00:48:00.264Z,15.80
2018-05-21T00:52:02.804Z,15.60
2018-05-21T00:56:05.384Z,15.40
2018-05-21T01:00:08.020Z,15.30
2018-05-21T01:04:19.245Z,15.50
2018-05-21T01:08:27.563Z,15.50
2018-05-21T01:12:36.374Z,15.20
2018-05-21T01:16:40.958Z,15.20
2018-05-21T01:20:45.547Z,15.10
2018-05-21T01:24:48.567Z,15.10
2018-05-21T01:28:54.157Z,15.00
2018-05-21T01:32:57.518Z,15.00
2018-05-21T01:37:00.067Z,15.00
2018-05-21T01:41:02.595Z,15.00
2018-05-21T01:45:05.146Z,15.20
2018-05-21T01:49:07.670Z,15.30
2018-05-21T01:53:15.564Z,15.30
2018-05-21T01:57:19.450Z,15.40
2018-05-21T02:01:23.639Z,15.40
2018-05-21T02:05:26.208Z,15.40
2018-05-21T02:09:42.831Z,15.40
2018-05-21T02:13:46.803Z,15.40
2018-05-21T02:17:50.729Z,15.40
2018-05-21T02:21:54.066Z,15.40
2018-05-21T02:26:01.935Z,15.40
2018-05-21T02:30:04.454Z,15.40
2018-05-21T02:34:07.010Z,15.40
2018-05-21T02:38:13.634Z,15.40
2018-05-21T02:42:17.645Z,15.40
2018-05-21T02:46:22.007Z,15.40
2018-05-21T02:50:26.899Z,15.40
2018-05-21T02:54:30.706Z,15.40
2018-05-21T02:58:34.346Z,15.40
2018-05-21T03:02:36.944Z,15.40
2018-05-21T03:06:42.319Z,15.30
2018-05-21T03:10:50.610Z,15.30
2018-05-21T03:14:56.451Z,15.30
2018-05-21T03:18:59.127Z,15.30
2018-05-21T03:23:01.720Z,15.30
2018-05-21T03:27:05.027Z,15.30
2018-05-21T03:31:13.343Z,15.40
2018-05-21T03:35:17.942Z,15.30
2018-05-21T03:39:24.328Z,15.40
2018-05-21T03:43:27.686Z,15.40
2018-05-21T03:47:31.033Z,15.50
2018-05-21T03:51:33.565Z,15.40
2018-05-21T03:55:36.267Z,15.50
2018-05-21T03:59:51.278Z,15.50
2018-05-21T04:03:56.299Z,15.50
2018-05-21T04:07:59.732Z,15.60
2018-05-21T04:12:03.063Z,15.80
2018-05-21T04:16:05.586Z,15.70
2018-05-21T04:20:15.219Z,16.00
2018-05-21T04:24:19.249Z,16.00
2018-05-21T04:28:23.200Z,16.00
2018-05-21T04:32:25.808Z,16.00
2018-05-21T04:36:28.447Z,15.90
2018-05-21T04:40:31.703Z,15.70
2018-05-21T04:44:34.246Z,15.70
2018-05-21T04:48:37.353Z,15.70
2018-05-21T04:52:42.126Z,15.70
2018-05-21T04:56:45.541Z,15.70
2018-05-21T05:00:48.644Z,15.60
2018-05-21T05:04:52.260Z,15.50
2018-05-21T05:08:54.898Z,15.50
2018-05-21T05:12:58.180Z,15.40
2018-05-21T05:17:03.518Z,15.40
2018-05-21T05:21:06.144Z,15.40
2018-05-21T05:25:11.454Z,15.40
2018-05-21T05:29:14.684Z,15.30
2018-05-21T05:33:18.047Z,15.40
2018-05-21T05:37:21.958Z,15.50
2018-05-21T05:41:25.129Z,15.50
2018-05-21T05:45:28.415Z,15.70
2018-05-21T05:49:30.961Z,15.60
2018-05-21T05:53:34.271Z,15.90
2018-05-21T05:57:37.781Z,15.80
2018-05-21T06:01:43.158Z,16.00
2018-05-21T06:05:46.598Z,16.00
2018-05-21T06:09:50.587Z,16.50
2018-05-21T06:13:53.991Z,16.50
2018-05-21T06:17:58.266Z,18.80
2018-05-21T06:22:00.835Z,18.70
2018-05-21T06:26:07.146Z,19.90
2018-05-21T06:30:11.742Z,20.60
2018-05-21T06:34:16.955Z,21.50
2018-05-21T06:38:20.288Z,21.40
2018-05-21T06:42:22.986Z,21.40
2018-05-21T06:46:25.730Z,21.90
2018-05-21T06:50:36.879Z,22.70
2018-05-21T06:54:41.122Z,22.60
2018-05-21T06:58:46.895Z,22.60
2018-05-21T07:02:50.571Z,22.60
2018-05-21T07:06:57.599Z,22.20
2018-05-21T07:11:01.188Z,22.40
2018-05-21T07:15:03.717Z,22.00
2018-05-21T07:19:08.816Z,21.60
2018-05-21T07:23:14.695Z,21.80
2018-05-21T07:27:18.751Z,21.80
2018-05-21T07:31:21.840Z,22.80
2018-05-21T07:35:25.097Z,23.60
2018-05-21T07:39:39.070Z,24.60
2018-05-21T07:43:45.288Z,25.20
2018-05-21T07:47:51.550Z,25.20
2018-05-21T07:51:55.959Z,25.60
2018-05-21T07:56:01.792Z,25.70
2018-05-21T08:00:04.410Z,25.70
2018-05-21T08:04:16.190Z,26.10
2018-05-21T08:08:22.470Z,26.10
2018-05-21T08:12:33.690Z,26.00
2018-05-21T08:16:37.309Z,26.10
2018-05-21T08:20:48.827Z,26.00
2018-05-21T08:24:52.730Z,25.90
2018-05-21T08:28:56.233Z,25.50
2018-05-21T08:33:03.806Z,25.70
2018-05-21T08:37:06.572Z,25.60
2018-05-21T08:41:14.787Z,25.50
2018-05-21T08:45:19.752Z,25.40
2018-05-21T08:49:23.708Z,25.80
2018-05-21T08:53:26.943Z,25.30
2018-05-21T08:57:29.651Z,25.50
2018-05-21T09:01:32.236Z,25.80
2018-05-21T09:05:43.690Z,25.70
2018-05-21T09:09:47.399Z,25.70
2018-05-21T09:13:50.733Z,26.00
2018-05-21T09:17:54.287Z,25.90
2018-05-21T09:21:57.856Z,25.90
2018-05-21T09:26:01.226Z,25.50
2018-05-21T09:30:04.541Z,25.30
2018-05-21T09:34:12.300Z,25.30
2018-05-21T09:38:15.374Z,25.30
2018-05-21T09:42:20.349Z,25.00
2018-05-21T09:46:25.327Z,24.90
2018-05-21T09:50:28.790Z,24.90
2018-05-21T09:54:35.480Z,24.90
2018-05-21T09:58:58.155Z,25.10
2018-05-21T10:03:06.364Z,25.00
2018-05-21T10:07:12.137Z,25.10
2018-05-21T10:11:16.607Z,25.20
2018-05-21T10:15:20.163Z,25.20
2018-05-21T10:19:23.017Z,25.00
2018-05-21T10:23:25.619Z,25.00
2018-05-21T10:27:35.712Z,25.20
2018-05-21T10:31:42.096Z,24.90
2018-05-21T10:35:45.560Z,25.10
2018-05-21T10:39:48.582Z,25.30
2018-05-21T10:43:53.502Z,25.30
2018-05-21T10:47:56.950Z,25.40
2018-05-21T10:52:13.292Z,25.20
2018-05-21T10:56:17.051Z,25.20
2018-05-21T11:00:20.828Z,25.40
2018-05-21T11:04:24.736Z,25.20
2018-05-21T11:08:28.724Z,25.10
2018-05-21T11:12:40.609Z,25.20
2018-05-21T11:16:44.648Z,25.10
2018-05-21T11:20:47.858Z,25.00
2018-05-21T11:24:51.674Z,24.90
2018-05-21T11:29:03.586Z,24.80
2018-05-21T11:33:12.577Z,25.10
2018-05-21T11:37:15.766Z,25.00
2018-05-21T11:41:19.028Z,25.00
2018-05-21T11:45:21.979Z,25.10
2018-05-21T11:49:24.550Z,25.00
2018-05-21T11:53:29.007Z,25.30
2018-05-21T11:57:36.953Z,25.40
2018-05-21T12:01:42.326Z,25.40
2018-05-21T12:05:46.482Z,25.00
2018-05-21T12:09:50.416Z,24.70
2018-05-21T12:13:54.144Z,24.80
2018-05-21T12:17:57.705Z,25.00
2018-05-21T12:22:02.526Z,24.60
2018-05-21T12:26:05.108Z,24.60
2018-05-21T12:30:09.809Z,24.50
2018-05-21T12:34:16.498Z,24.20
2018-05-21T12:38:21.642Z,24.20
2018-05-21T12:42:24.348Z,24.20
2018-05-21T12:46:27.845Z,24.00
2018-05-21T12:50:38.052Z,24.00
2018-05-21T12:54:43.152Z,23.90
2018-05-21T12:58:47.346Z,23.80
2018-05-21T13:02:50.356Z,23.80
2018-05-21T13:06:53.877Z,24.10
2018-05-21T13:10:56.473Z,24.00
2018-05-21T13:15:00.159Z,24.30
2018-05-21T13:19:07.648Z,24.30
2018-05-21T13:23:11.674Z,24.30
2018-05-21T13:27:15.172Z,24.20
2018-05-21T13:31:19.084Z,24.10
2018-05-21T13:35:22.056Z,24.10
2018-05-21T13:39:36.956Z,24.10
2018-05-21T13:43:40.250Z,23.90
2018-05-21T13:47:43.967Z,23.70
2018-05-21T13:51:50.124Z,23.70
2018-05-21T13:55:53.484Z,23.80
2018-05-21T13:59:56.890Z,23.70
2018-05-21T14:03:59.405Z,23.90
2018-05-21T14:08:04.774Z,24.10
2018-05-21T14:12:07.334Z,24.00
2018-05-21T14:16:12.123Z,24.20
2018-05-21T14:20:14.884Z,24.20
2018-05-21T14:24:17.853Z,24.00
2018-05-21T14:28:21.602Z,24.10
2018-05-21T14:32:25.982Z,24.10
2018-05-21T14:36:29.443Z,24.10
2018-05-21T14:40:40.418Z,24.00
2018-05-21T14:44:45.669Z,24.30
2018-05-21T14:48:50.982Z,24.40
2018-05-21T14:52:53.956Z,24.30
2018-05-21T14:56:56.738Z,24.20
2018-05-21T15:01:02.162Z,24.10
2018-05-21T15:05:05.059Z,24.00
2018-05-21T15:09:16.893Z,24.00
2018-05-21T15:13:23.094Z,24.00
2018-05-21T15:17:26.676Z,24.10
2018-05-21T15:21:34.431Z,24.00
2018-05-21T15:25:37.759Z,23.80
2018-05-21T15:29:42.300Z,23.70
2018-05-21T15:33:48.401Z,23.90
2018-05-21T15:37:51.920Z,23.90
2018-05-21T15:41:56.514Z,24.20
2018-05-21T15:46:04.068Z,24.20
2018-05-21T15:50:06.605Z,24.10
2018-05-21T15:54:10.566Z,24.30
2018-05-21T15:58:15.757Z,24.20
2018-05-21T16:02:19.501Z,24.10
2018-05-21T16:06:25.744Z,24.00
2018-05-21T16:10:29.120Z,23.80
2018-05-21T16:14:42.418Z,23.70
2018-05-21T16:18:46.718Z,23.50
2018-05-21T16:22:49.752Z,23.50
2018-05-21T16:26:52.494Z,23.70
2018-05-21T16:30:56.968Z,23.80
2018-05-21T16:35:00.571Z,23.70
2018-05-21T16:39:11.317Z,23.60
2018-05-21T16:43:16.127Z,23.60
2018-05-21T16:47:18.948Z,23.60
2018-05-21T16:51:21.847Z,23.50
2018-05-21T16:55:25.387Z,23.40
2018-05-21T16:59:30.779Z,23.30
2018-05-21T17:03:41.402Z,23.20
2018-05-21T17:07:44.974Z,23.10
2018-05-21T17:11:48.441Z,23.10
2018-05-21T17:15:51.471Z,23.10
2018-05-21T17:19:54.012Z,23.10
2018-05-21T17:23:56.563Z,23.10
2018-05-21T17:27:59.100Z,22.80
2018-05-21T17:32:01.748Z,22.70
2018-05-21T17:36:05.274Z,22.60
2018-05-21T17:40:11.798Z,22.50
2018-05-21T17:44:14.763Z,22.40
2018-05-21T17:48:20.259Z,22.50
2018-05-21T17:52:22.874Z,22.40
2018-05-21T17:56:40.325Z,22.30
2018-05-21T18:00:44.022Z,22.30
2018-05-21T18:04:47.743Z,22.40
2018-05-21T18:08:50.737Z,22.30
2018-05-21T18:12:53.566Z,22.40
2018-05-21T18:16:58.078Z,22.50
2018-05-21T18:21:11.404Z,22.60
2018-05-21T18:25:14.328Z,22.50
2018-05-21T18:29:19.657Z,22.50
2018-05-21T18:33:22.496Z,22.50
2018-05-21T18:37:27.166Z,22.50
2018-05-21T18:41:37.683Z,22.40
2018-05-21T18:45:40.911Z,22.30
2018-05-21T18:49:44.738Z,22.10
2018-05-21T18:53:48.173Z,22.00
2018-05-21T18:57:54.323Z,21.70
2018-05-21T19:01:57.294Z,21.70
2018-05-21T19:06:11.387Z,21.60
2018-05-21T19:10:15.477Z,21.50
2018-05-21T19:14:20.527Z,21.50
2018-05-21T19:18:24.177Z,21.40
2018-05-21T19:22:27.446Z,21.40
2018-05-21T19:26:29.998Z,21.30
2018-05-21T19:30:36.156Z,21.20
2018-05-21T19:34:38.870Z,21.20
2018-05-21T19:38:41.875Z,21.00
2018-05-21T19:42:44.830Z,20.90
2018-05-21T19:46:48.600Z,20.80
2018-05-21T19:50:53.008Z,20.70
2018-05-21T19:54:56.335Z,20.50
2018-05-21T19:58:58.892Z,20.50
2018-05-21T20:03:07.224Z,20.50
2018-05-21T20:07:23.421Z,20.50
2018-05-21T20:11:34.465Z,20.40
2018-05-21T20:15:38.061Z,20.30
2018-05-21T20:19:41.169Z,20.20
2018-05-21T20:23:48.560Z,20.10
2018-05-21T20:27:51.616Z,20.10
2018-05-21T20:31:54.252Z,20.10
2018-05-21T20:36:10.873Z,19.90
2018-05-21T20:40:13.839Z,19.90
2018-05-21T20:44:17.647Z,19.90
2018-05-21T20:48:20.606Z,19.80
2018-05-21T20:52:23.278Z,19.80
2018-05-21T20:56:26.779Z,19.70
2018-05-21T21:00:29.319Z,19.70
2018-05-21T21:04:33.850Z,19.70
2018-05-21T21:08:37.185Z,19.60
2018-05-21T21:12:40.880Z,19.50
2018-05-21T21:16:44.974Z,19.50
2018-05-21T21:20:48.088Z,19.40
2018-05-21T21:24:54.823Z,19.30
2018-05-21T21:28:57.511Z,19.20
2018-05-21T21:33:03.531Z,19.20
2018-05-21T21:37:06.163Z,19.20
2018-05-21T21:41:10.902Z,19.20
2018-05-21T21:45:14.173Z,19.10
2018-05-21T21:49:17.739Z,19.10
2018-05-21T21:53:23.014Z,19.00
2018-05-21T21:57:25.608Z,19.00
2018-05-21T22:01:28.929Z,18.70
2018-05-21T22:05:32.211Z,18.60
2018-05-21T22:09:39.566Z,18.50
2018-05-21T22:13:43.320Z,18.50
2018-05-21T22:17:46.629Z,18.50
2018-05-21T22:21:49.653Z,18.50
2018-05-21T22:25:52.843Z,18.50
2018-05-21T22:29:55.543Z,18.30
2018-05-21T22:33:58.100Z,18.20
2018-05-21T22:38:01.472Z,17.90
2018-05-21T22:42:04.131Z,17.90
2018-05-21T22:46:09.221Z,17.80
2018-05-21T22:50:14.953Z,17.70
2018-05-21T22:54:29.346Z,17.60
2018-05-21T22:58:31.898Z,17.40
2018-05-21T23:02:35.187Z,17.30
2018-05-21T23:06:40.366Z,17.20
2018-05-21T23:10:45.623Z,17.20
2018-05-21T23:14:48.395Z,17.20
2018-05-21T23:18:53.862Z,17.20
2018-05-21T23:22:56.508Z,17.20
2018-05-21T23:26:59.938Z,17.00
2018-05-21T23:31:03.260Z,16.90
2018-05-21T23:35:06.567Z,16.90
2018-05-21T23:39:14.749Z,16.80
2018-05-21T23:43:19.176Z,16.80
2018-05-21T23:47:27.835Z,16.80
2018-05-21T23:51:31.121Z,17.00
2018-05-21T23:55:33.763Z,16.90
2018-05-21T23:59:37.090Z,16.50
